createdAt,value
2023-02-19T00:00:00.859Z,72.28
2023-02-19T00:02:58.628Z,77.97
2023-02-19T00:05:56.478Z,88.43
2023-02-19T00:08:54.195Z,78.40
2023-02-19T00:11:51.958Z,82.05
2023-02-19T00:14:49.634Z,81.90
2023-02-19T00:17:47.414Z,88.65
2023-02-19T00:20:45.092Z,93.10
2023-02-19T00:23:43.074Z,89.10
2023-02-19T00:26:41.944Z,83.40
2023-02-19T00:29:39.770Z,102.95
2023-02-19T00:32:37.429Z,92.25
2023-02-19T00:35:35.969Z,102.15
2023-02-19T00:38:37.265Z,98.13
2023-02-19T00:41:35.295Z,101.97
2023-02-19T00:44:33.017Z,107.22
2023-02-19T00:47:30.849Z,101.10
2023-02-19T00:50:28.514Z,94.45
2023-02-19T00:53:26.343Z,96.88
2023-02-19T00:56:24.019Z,95.03
2023-02-19T00:59:21.832Z,94.05
2023-02-19T01:02:19.530Z,109.28
2023-02-19T01:05:17.333Z,105.63
2023-02-19T01:08:15.085Z,97.35
2023-02-19T01:11:13.546Z,105.53
2023-02-19T01:14:11.672Z,105.82
2023-02-19T01:17:09.474Z,114.75
2023-02-19T01:20:07.408Z,106.18
2023-02-19T01:23:05.226Z,113.93
2023-02-19T01:26:07.816Z,115.65
2023-02-19T01:29:05.696Z,110.75
2023-02-19T01:32:03.772Z,115.93
2023-02-19T01:35:01.703Z,120.55
2023-02-19T01:37:59.451Z,118.57
2023-02-19T01:41:03.066Z,104.78
2023-02-19T01:44:30.112Z,109.22
2023-02-19T01:47:27.980Z,109.50
2023-02-19T01:50:29.123Z,113.47
2023-02-19T01:53:30.091Z,126.65
2023-02-19T01:56:29.138Z,123.63
2023-02-19T01:59:27.024Z,119.13
2023-02-19T02:02:27.878Z,105.95
2023-02-19T02:05:37.525Z,110.30
2023-02-19T02:08:50.971Z,105.95
2023-02-19T02:11:51.682Z,101.13
2023-02-19T02:14:49.364Z,110.63
2023-02-19T02:18:02.303Z,121.43
2023-02-19T02:24:21.833Z,89.05
2023-02-19T02:27:54.645Z,105.28
2023-02-19T02:31:05.183Z,110.03
2023-02-19T02:34:17.587Z,125.78
2023-02-19T02:37:17.340Z,108.60
2023-02-19T02:40:15.408Z,106.20
2023-02-19T02:43:14.250Z,128.10
2023-02-19T02:46:13.682Z,118.45
2023-02-19T02:49:19.730Z,122.43
2023-02-19T02:52:37.388Z,115.78
2023-02-19T02:55:39.721Z,117.82
2023-02-19T02:58:38.094Z,123.93
2023-02-19T03:01:57.027Z,118.63
2023-02-19T03:05:29.896Z,115.88
2023-02-19T03:08:38.406Z,116.13
2023-02-19T03:12:04.527Z,121.97
2023-02-19T03:15:22.590Z,107.72
2023-02-19T03:18:38.126Z,109.55
2023-02-19T03:21:39.899Z,98.00
2023-02-19T03:25:00.808Z,97.18
2023-02-19T03:28:01.219Z,95.63
2023-02-19T03:30:58.998Z,77.05
2023-02-19T03:34:03.405Z,75.72
2023-02-19T03:37:11.137Z,86.47
2023-02-19T03:40:15.549Z,76.05
2023-02-19T03:43:22.308Z,70.82
2023-02-19T03:46:33.673Z,74.43
2023-02-19T03:49:53.642Z,74.95
2023-02-19T03:53:34.482Z,74.95
2023-02-19T03:56:38.864Z,80.93
2023-02-19T03:59:45.578Z,75.05
2023-02-19T04:02:50.964Z,70.32
2023-02-19T04:05:54.127Z,68.28
2023-02-19T04:08:56.863Z,65.68
2023-02-19T04:11:55.867Z,104.07
2023-02-19T04:15:03.565Z,95.80
2023-02-19T04:18:09.030Z,88.15
2023-02-19T04:21:08.440Z,90.97
2023-02-19T04:24:14.113Z,78.75
2023-02-19T04:27:12.282Z,86.70
2023-02-19T04:30:12.178Z,86.90
2023-02-19T04:33:09.998Z,89.70
2023-02-19T04:36:10.334Z,79.90
2023-02-19T04:39:08.719Z,84.32
2023-02-19T04:42:06.548Z,92.32
2023-02-19T04:45:04.544Z,83.78
2023-02-19T04:48:15.576Z,85.90
2023-02-19T04:51:13.464Z,93.10
2023-02-19T04:54:11.537Z,105.68
2023-02-19T04:57:09.298Z,117.15
2023-02-19T05:00:08.748Z,124.22
2023-02-19T05:03:06.396Z,127.47
2023-02-19T05:06:20.256Z,114.53
2023-02-19T05:09:21.450Z,96.45
2023-02-19T05:12:19.258Z,100.45
2023-02-19T05:15:20.018Z,78.47
2023-02-19T05:18:17.773Z,79.82
2023-02-19T05:21:16.318Z,81.22
2023-02-19T05:24:14.114Z,63.53
2023-02-19T05:27:11.788Z,63.08
2023-02-19T05:30:10.344Z,80.57
2023-02-19T05:33:08.031Z,74.20
2023-02-19T05:36:09.965Z,68.65
2023-02-19T05:39:07.915Z,86.75
2023-02-19T05:42:05.772Z,94.13
2023-02-19T05:45:03.406Z,102.13
2023-02-19T05:48:01.664Z,105.80
2023-02-19T05:51:06.159Z,74.70
2023-02-19T05:54:04.145Z,85.28
2023-02-19T05:57:01.932Z,97.78
2023-02-19T05:59:59.697Z,100.03
2023-02-19T06:02:57.415Z,105.60
2023-02-19T06:05:55.428Z,106.90
2023-02-19T06:08:53.708Z,105.63
2023-02-19T06:11:51.553Z,95.32
2023-02-19T06:14:49.657Z,105.78
2023-02-19T06:17:47.425Z,99.40
2023-02-19T06:20:45.105Z,103.05
2023-02-19T06:23:43.638Z,94.38
2023-02-19T06:26:41.485Z,93.50
2023-02-19T06:29:39.339Z,103.25
2023-02-19T06:32:37.460Z,96.53
2023-02-19T06:35:35.227Z,97.00
2023-02-19T06:38:32.951Z,96.70
2023-02-19T06:41:30.779Z,92.13
2023-02-19T06:44:28.487Z,87.18
2023-02-19T06:47:26.317Z,100.85
2023-02-19T06:50:24.042Z,88.85
2023-02-19T06:53:22.120Z,100.35
2023-02-19T06:56:30.537Z,98.35
2023-02-19T06:59:28.488Z,85.30
2023-02-19T07:02:26.763Z,87.63
2023-02-19T07:05:24.645Z,87.10
2023-02-19T07:08:22.353Z,92.20
2023-02-19T07:11:20.308Z,91.05
2023-02-19T07:14:18.263Z,94.90
2023-02-19T07:17:16.113Z,88.25
2023-02-19T07:20:14.228Z,65.18
2023-02-19T07:23:11.994Z,75.07
2023-02-19T07:26:11.781Z,67.30
2023-02-19T07:29:10.829Z,65.15
2023-02-19T07:32:08.526Z,72.38
2023-02-19T07:35:06.663Z,74.28
2023-02-19T07:38:04.394Z,81.18
2023-02-19T07:41:04.515Z,81.68
2023-02-19T07:44:02.242Z,74.28
2023-02-19T07:46:59.993Z,72.10
2023-02-19T07:49:57.734Z,75.85
2023-02-19T07:52:55.526Z,83.75
2023-02-19T07:55:53.871Z,85.43
2023-02-19T07:58:51.649Z,78.80
2023-02-19T08:02:04.971Z,76.45
2023-02-19T08:05:03.054Z,72.60
2023-02-19T08:08:04.007Z,69.97
2023-02-19T08:11:19.035Z,64.97
2023-02-19T08:14:16.973Z,61.72
2023-02-19T08:17:14.795Z,89.93
2023-02-19T08:20:12.498Z,85.82
2023-02-19T08:23:11.394Z,76.07
2023-02-19T08:26:25.685Z,76.35
2023-02-19T08:29:27.202Z,81.57
2023-02-19T08:32:24.876Z,80.10
2023-02-19T08:35:23.195Z,67.90
2023-02-19T08:38:20.889Z,71.43
2023-02-19T08:41:18.789Z,81.18
2023-02-19T08:44:16.568Z,74.75
2023-02-19T08:47:14.439Z,70.38
2023-02-19T08:50:12.761Z,71.55
2023-02-19T08:53:10.638Z,70.80
2023-02-19T08:56:11.797Z,78.70
2023-02-19T08:59:09.635Z,80.95
2023-02-19T09:02:07.457Z,68.13
2023-02-19T09:05:06.363Z,68.78
2023-02-19T09:08:04.072Z,75.63
2023-02-19T09:11:05.205Z,80.65
2023-02-19T09:14:03.044Z,80.28
2023-02-19T09:17:01.785Z,77.07
2023-02-19T09:19:59.595Z,77.72
2023-02-19T09:22:58.949Z,77.05
2023-02-19T09:26:00.408Z,73.70
2023-02-19T09:28:58.740Z,71.90
2023-02-19T09:31:59.403Z,71.95
2023-02-19T09:34:57.173Z,78.82
2023-02-19T09:37:54.826Z,82.55
2023-02-19T09:40:55.921Z,80.55
2023-02-19T09:43:53.704Z,73.38
2023-02-19T09:46:53.753Z,77.95
2023-02-19T09:49:57.377Z,87.53
2023-02-19T09:52:58.982Z,93.53
2023-02-19T09:55:57.290Z,93.85
2023-02-19T09:58:59.077Z,85.85
2023-02-19T10:02:05.927Z,97.28
2023-02-19T10:05:12.630Z,93.32
2023-02-19T10:08:16.199Z,87.63
2023-02-19T10:11:14.791Z,90.75
2023-02-19T10:14:19.217Z,89.90
2023-02-19T10:17:27.386Z,92.93
2023-02-19T10:20:28.411Z,96.25
2023-02-19T10:23:27.026Z,106.95
2023-02-19T10:26:25.198Z,112.80
2023-02-19T10:29:25.232Z,116.53
2023-02-19T10:32:26.128Z,110.13
2023-02-19T10:35:24.061Z,102.63
2023-02-19T10:38:26.571Z,109.32
2023-02-19T10:41:27.036Z,123.88
2023-02-19T10:44:28.624Z,108.35
2023-02-19T10:47:27.912Z,128.07
2023-02-19T10:50:39.709Z,124.25
2023-02-19T10:53:48.803Z,127.45
2023-02-19T10:56:46.984Z,127.07
2023-02-19T11:00:02.418Z,127.30
2023-02-19T11:03:20.461Z,123.82
2023-02-19T11:06:22.045Z,117.07
2023-02-19T11:09:31.672Z,131.57
2023-02-19T11:12:34.002Z,128.98
2023-02-19T11:15:35.461Z,129.63
2023-02-19T11:18:36.995Z,139.30
2023-02-19T11:21:34.938Z,143.48
2023-02-19T11:24:37.669Z,139.73
2023-02-19T11:27:35.350Z,139.07
2023-02-19T11:30:36.957Z,136.85
2023-02-19T11:33:44.365Z,132.32
2023-02-19T11:36:43.952Z,144.80
2023-02-19T11:39:45.541Z,146.23
2023-02-19T11:42:52.211Z,156.65
2023-02-19T11:46:05.602Z,151.48
2023-02-19T11:49:18.945Z,149.63
2023-02-19T11:52:33.483Z,150.55
2023-02-19T11:56:08.378Z,166.50
2023-02-19T11:59:23.532Z,150.00
2023-02-19T12:02:50.058Z,151.35
2023-02-19T12:06:15.958Z,158.40
2023-02-19T12:09:31.728Z,158.13
2023-02-19T12:13:00.106Z,170.60
2023-02-19T12:16:29.403Z,177.13
2023-02-19T12:19:45.401Z,163.35
2023-02-19T12:23:05.940Z,172.05
2023-02-19T12:26:24.643Z,194.52
2023-02-19T12:29:44.214Z,171.63
2023-02-19T12:33:06.752Z,167.82
2023-02-19T12:36:21.823Z,177.27
2023-02-19T12:39:39.829Z,180.85
2023-02-19T12:43:10.306Z,183.57
2023-02-19T12:46:22.738Z,176.95
2023-02-19T12:49:29.808Z,176.60
2023-02-19T12:52:32.601Z,194.20
2023-02-19T12:55:45.353Z,184.35
2023-02-19T12:58:54.262Z,186.88
2023-02-19T13:01:59.060Z,172.63
2023-02-19T13:05:09.635Z,170.65
2023-02-19T13:08:29.879Z,173.18
2023-02-19T13:11:44.652Z,174.93
2023-02-19T13:14:50.928Z,183.95
2023-02-19T13:17:56.062Z,184.80
2023-02-19T13:20:56.998Z,182.07
2023-02-19T13:23:59.064Z,188.50
2023-02-19T13:27:29.592Z,188.20
2023-02-19T13:30:54.104Z,182.45
2023-02-19T13:34:21.741Z,193.95
2023-02-19T13:37:20.773Z,191.00
2023-02-19T13:40:37.529Z,200.80
2023-02-19T13:43:39.373Z,193.65
2023-02-19T13:46:41.998Z,201.52
2023-02-19T13:49:43.102Z,193.25
2023-02-19T13:52:41.414Z,192.65
2023-02-19T13:55:51.888Z,203.60
2023-02-19T13:59:20.809Z,199.55
2023-02-19T14:02:31.094Z,201.68
2023-02-19T14:05:59.047Z,190.70
2023-02-19T14:08:58.956Z,194.60
2023-02-19T14:12:15.499Z,180.15
2023-02-19T14:15:45.161Z,188.63
2023-02-19T14:18:52.728Z,204.63
2023-02-19T14:21:58.216Z,201.88
2023-02-19T14:25:07.396Z,213.10
2023-02-19T14:28:25.213Z,191.88
2023-02-19T14:31:34.514Z,201.52
2023-02-19T14:34:40.054Z,192.50
2023-02-19T14:38:13.672Z,210.77
2023-02-19T14:41:33.359Z,189.02
2023-02-19T14:44:53.625Z,184.52
2023-02-19T14:48:02.404Z,183.02
2023-02-19T14:51:11.607Z,191.57
2023-02-19T14:54:16.836Z,179.98
2023-02-19T14:57:20.900Z,209.90
2023-02-19T15:00:29.930Z,186.75
2023-02-19T15:03:33.848Z,209.88
2023-02-19T15:06:34.950Z,197.52
2023-02-19T15:09:37.311Z,178.35
2023-02-19T15:12:46.588Z,179.48
2023-02-19T15:15:46.990Z,154.75
2023-02-19T15:18:47.110Z,152.88
2023-02-19T15:21:48.951Z,151.88
2023-02-19T15:24:48.564Z,133.52
2023-02-19T15:27:46.984Z,125.97
2023-02-19T15:30:44.907Z,131.30
2023-02-19T15:33:51.176Z,117.13
2023-02-19T15:36:51.985Z,111.72
2023-02-19T15:39:51.855Z,89.93
2023-02-19T15:42:49.718Z,75.32
2023-02-19T15:45:48.934Z,69.55
2023-02-19T15:48:53.550Z,66.20
2023-02-19T15:52:05.952Z,70.75
2023-02-19T15:55:24.609Z,63.78
2023-02-19T15:58:33.450Z,58.83
2023-02-19T16:01:38.024Z,66.38
2023-02-19T16:04:36.846Z,59.42
2023-02-19T16:07:34.690Z,73.15
2023-02-19T16:10:33.205Z,67.43
2023-02-19T16:13:33.241Z,64.10
2023-02-19T16:16:39.236Z,70.28
2023-02-19T16:19:48.841Z,62.05
2023-02-19T16:22:47.053Z,54.75
2023-02-19T16:25:46.742Z,51.92
2023-02-19T16:28:44.715Z,47.00
2023-02-19T16:31:50.733Z,51.03
2023-02-19T16:34:51.176Z,46.38
2023-02-19T16:38:04.326Z,52.17
2023-02-19T16:41:12.997Z,58.78
2023-02-19T16:44:36.320Z,52.30
2023-02-19T16:47:37.989Z,51.70
2023-02-19T16:50:36.172Z,49.00
2023-02-19T16:53:34.349Z,50.45
2023-02-19T16:56:32.140Z,41.30
2023-02-19T16:59:29.941Z,48.03
2023-02-19T17:02:27.714Z,48.78
2023-02-19T17:05:29.540Z,44.08
2023-02-19T17:08:35.546Z,45.78
2023-02-19T17:11:33.413Z,44.05
2023-02-19T17:14:31.137Z,42.22
2023-02-19T17:17:28.993Z,38.40
2023-02-19T17:20:30.357Z,45.38
2023-02-19T17:23:28.299Z,46.53
2023-02-19T17:26:29.075Z,46.00
2023-02-19T17:29:29.232Z,51.17
2023-02-19T17:32:27.180Z,47.80
2023-02-19T17:35:25.809Z,47.72
2023-02-19T17:38:23.522Z,39.45
2023-02-19T17:41:21.461Z,36.63
2023-02-19T17:44:19.286Z,41.45
2023-02-19T17:47:17.127Z,39.05
2023-02-19T17:50:17.330Z,32.78
2023-02-19T17:53:15.181Z,29.80
2023-02-19T17:56:19.204Z,37.10
2023-02-19T17:59:18.341Z,32.08
2023-02-19T18:02:16.219Z,37.72
2023-02-19T18:05:14.338Z,33.20
2023-02-19T18:08:12.354Z,48.40
2023-02-19T18:11:10.511Z,42.97
2023-02-19T18:14:08.476Z,37.38
2023-02-19T18:17:06.310Z,40.53
2023-02-19T18:20:05.344Z,36.47
2023-02-19T18:23:04.046Z,37.80
2023-02-19T18:26:01.940Z,35.22
2023-02-19T18:29:00.043Z,51.63
2023-02-19T18:31:57.901Z,64.80
2023-02-19T18:34:58.294Z,71.57
2023-02-19T18:37:56.369Z,82.80
2023-02-19T18:40:54.247Z,150.52
2023-02-19T18:43:51.967Z,177.57
2023-02-19T18:46:50.376Z,223.98
2023-02-19T18:49:50.245Z,213.05
2023-02-19T18:52:48.228Z,213.23
2023-02-19T18:55:45.976Z,222.93
2023-02-19T18:58:43.805Z,230.82
2023-02-19T19:01:41.553Z,228.10
2023-02-19T19:04:39.993Z,233.70
2023-02-19T19:07:37.794Z,207.30
2023-02-19T19:10:35.810Z,207.93
2023-02-19T19:13:33.504Z,192.57
2023-02-19T19:16:31.605Z,186.32
2023-02-19T19:19:29.395Z,180.35
2023-02-19T19:22:27.275Z,157.77
2023-02-19T19:25:25.126Z,156.10
2023-02-19T19:28:23.547Z,172.68
2023-02-19T19:31:22.204Z,154.75
2023-02-19T19:34:20.387Z,157.90
2023-02-19T19:37:18.211Z,160.93
2023-02-19T19:40:18.904Z,154.95
2023-02-19T19:43:16.679Z,154.95
2023-02-19T19:46:19.489Z,161.48
2023-02-19T19:49:22.498Z,147.18
2023-02-19T19:52:20.411Z,128.88
2023-02-19T19:55:18.399Z,131.45
2023-02-19T19:58:17.434Z,109.10
2023-02-19T20:01:15.564Z,83.82
2023-02-19T20:04:14.234Z,53.17
2023-02-19T20:07:11.969Z,51.85
2023-02-19T20:10:12.134Z,52.88
2023-02-19T20:13:10.151Z,48.67
2023-02-19T20:16:13.916Z,56.78
2023-02-19T20:19:12.686Z,47.05
2023-02-19T20:22:10.600Z,96.97
2023-02-19T20:25:08.600Z,77.53
2023-02-19T20:28:06.596Z,94.70
2023-02-19T20:31:04.543Z,70.40
2023-02-19T20:34:02.488Z,63.50
2023-02-19T20:37:00.565Z,64.07
2023-02-19T20:39:58.442Z,79.38
2023-02-19T20:42:56.180Z,65.50
2023-02-19T20:45:54.120Z,50.75
2023-02-19T20:48:52.060Z,44.10
2023-02-19T20:51:52.588Z,38.28
2023-02-19T20:54:54.192Z,46.28
2023-02-19T20:57:52.090Z,44.67
2023-02-19T21:00:49.957Z,52.05
2023-02-19T21:03:47.804Z,53.38
2023-02-19T21:06:46.183Z,37.45
2023-02-19T21:09:44.076Z,37.83
2023-02-19T21:12:42.703Z,43.35
2023-02-19T21:15:40.674Z,38.08
2023-02-19T21:18:38.519Z,35.22
2023-02-19T21:21:36.577Z,33.97
2023-02-19T21:24:34.359Z,23.23
2023-02-19T21:27:32.304Z,16.20
2023-02-19T21:30:30.083Z,16.42
2023-02-19T21:33:27.992Z,23.33
2023-02-19T21:36:25.677Z,29.00
2023-02-19T21:39:26.046Z,13.73
2023-02-19T21:42:23.738Z,8.82
2023-02-19T21:45:21.870Z,7.90
2023-02-19T21:48:19.662Z,6.38
2023-02-19T21:51:18.342Z,7.63
2023-02-19T21:54:20.456Z,8.07
2023-02-19T21:57:18.388Z,7.10
2023-02-19T22:00:16.476Z,7.75
2023-02-19T22:03:17.720Z,14.55
2023-02-19T22:06:15.679Z,9.57
2023-02-19T22:09:14.952Z,9.27
2023-02-19T22:12:12.651Z,19.95
2023-02-19T22:15:10.468Z,41.08
2023-02-19T22:18:08.232Z,40.13
2023-02-19T22:21:07.117Z,40.80
2023-02-19T22:24:05.258Z,32.20
2023-02-19T22:27:03.127Z,30.98
2023-02-19T22:30:00.890Z,28.13
2023-02-19T22:32:58.812Z,15.88
2023-02-19T22:35:56.536Z,13.63
2023-02-19T22:38:54.554Z,16.98
2023-02-19T22:41:53.210Z,18.10
2023-02-19T22:44:51.020Z,20.75
2023-02-19T22:47:48.907Z,25.20
2023-02-19T22:50:46.732Z,24.48
2023-02-19T22:53:46.387Z,28.55
2023-02-19T22:56:44.863Z,49.30
2023-02-19T22:59:42.593Z,41.67
2023-02-19T23:02:40.386Z,50.65
2023-02-19T23:05:38.091Z,34.75
2023-02-19T23:08:35.945Z,34.50
2023-02-19T23:11:39.673Z,38.90
2023-02-19T23:14:38.323Z,41.72
2023-02-19T23:17:36.196Z,68.50
2023-02-19T23:20:33.987Z,79.13
2023-02-19T23:23:31.707Z,57.30
2023-02-19T23:26:29.556Z,45.72
2023-02-19T23:29:28.747Z,47.65
2023-02-19T23:32:26.556Z,48.28
2023-02-19T23:35:24.313Z,30.30
2023-02-19T23:38:22.251Z,22.45
2023-02-19T23:41:20.046Z,18.77
2023-02-19T23:44:18.642Z,35.67
2023-02-19T23:47:16.481Z,34.20
2023-02-19T23:50:16.728Z,32.17
2023-02-19T23:53:14.499Z,29.90
2023-02-19T23:56:12.638Z,31.70
2023-02-19T23:59:10.526Z,22.65
